createdAt,value
2017-10-19T00:00:45.660Z,28.50
2017-10-19T00:03:11.906Z,31.20
2017-10-19T00:05:38.144Z,36.67
2017-10-19T00:08:04.443Z,27.33
2017-10-19T00:10:30.730Z,28.50
2017-10-19T00:12:56.969Z,42.83
2017-10-19T00:15:23.226Z,33.17
2017-10-19T00:17:49.452Z,30.63
2017-10-19T00:20:15.742Z,32.70
2017-10-19T00:22:42.012Z,27.07
2017-10-19T00:25:09.097Z,38.70
2017-10-19T00:27:36.098Z,25.00
2017-10-19T00:30:02.360Z,33.40
2017-10-19T00:32:29.326Z,23.53
2017-10-19T00:34:56.326Z,29.67
2017-10-19T00:37:22.604Z,21.93
2017-10-19T00:39:49.341Z,35.03
2017-10-19T00:42:15.570Z,30.20
2017-10-19T00:44:41.810Z,33.13
2017-10-19T00:47:08.795Z,33.70
2017-10-19T00:49:35.783Z,23.87
2017-10-19T00:52:02.021Z,25.87
2017-10-19T00:54:28.284Z,33.70
2017-10-19T00:56:56.982Z,36.47
2017-10-19T00:59:24.017Z,24.97
2017-10-19T01:01:50.314Z,26.17
2017-10-19T01:04:16.558Z,21.77
2017-10-19T01:06:42.789Z,21.53
2017-10-19T01:09:09.072Z,21.00
2017-10-19T01:11:36.063Z,30.03
2017-10-19T01:14:02.303Z,29.13
2017-10-19T01:16:28.533Z,28.73
2017-10-19T01:18:54.766Z,23.40
2017-10-19T01:21:21.059Z,26.10
2017-10-19T01:23:48.125Z,33.17
2017-10-19T01:26:15.214Z,26.03
2017-10-19T01:28:41.506Z,17.07
2017-10-19T01:31:07.801Z,24.93
2017-10-19T01:33:34.155Z,29.50
2017-10-19T01:36:01.173Z,30.80
2017-10-19T01:38:27.413Z,20.27
2017-10-19T01:40:53.689Z,30.03
2017-10-19T01:43:19.927Z,24.00
2017-10-19T01:45:46.178Z,26.63
2017-10-19T01:48:12.434Z,32.70
2017-10-19T01:50:38.690Z,31.40
2017-10-19T01:53:05.329Z,26.67
2017-10-19T01:55:31.592Z,27.33
2017-10-19T01:57:57.856Z,27.43
2017-10-19T02:00:25.717Z,17.13
2017-10-19T02:02:51.943Z,37.73
2017-10-19T02:05:18.247Z,19.97
2017-10-19T02:07:44.510Z,47.07
2017-10-19T02:10:10.771Z,31.77
2017-10-19T02:12:37.208Z,23.27
2017-10-19T02:15:03.507Z,29.70
2017-10-19T02:17:29.808Z,21.27
2017-10-19T02:19:56.082Z,28.13
2017-10-19T02:22:22.319Z,31.63
2017-10-19T02:24:49.215Z,22.57
2017-10-19T02:27:16.561Z,30.07
2017-10-19T02:29:42.860Z,23.53
2017-10-19T02:32:09.905Z,26.10
2017-10-19T02:34:36.127Z,33.57
2017-10-19T02:37:02.398Z,30.63
2017-10-19T02:39:28.750Z,24.17
2017-10-19T02:41:54.990Z,31.90
2017-10-19T02:44:22.005Z,25.63
2017-10-19T02:46:48.270Z,34.47
2017-10-19T02:49:14.553Z,29.00
2017-10-19T02:51:40.809Z,28.73
2017-10-19T02:54:07.070Z,21.00
2017-10-19T02:56:33.517Z,26.77
2017-10-19T02:58:59.813Z,35.10
2017-10-19T03:01:26.093Z,28.93
2017-10-19T03:03:52.410Z,27.63
2017-10-19T03:06:18.661Z,28.97
2017-10-19T03:08:46.406Z,38.33
2017-10-19T03:11:12.664Z,24.27
2017-10-19T03:13:38.914Z,28.30
2017-10-19T03:16:05.917Z,44.80
2017-10-19T03:18:32.185Z,19.93
2017-10-19T03:20:59.951Z,29.20
2017-10-19T03:23:26.921Z,27.43
2017-10-19T03:25:53.895Z,26.27
2017-10-19T03:28:21.045Z,30.37
2017-10-19T03:30:47.315Z,26.00
2017-10-19T03:33:13.558Z,31.57
2017-10-19T03:35:40.567Z,39.90
2017-10-19T03:38:07.550Z,29.23
2017-10-19T03:40:33.811Z,25.43
2017-10-19T03:43:01.562Z,41.20
2017-10-19T03:45:27.821Z,26.27
2017-10-19T03:47:54.798Z,25.07
2017-10-19T03:50:21.889Z,28.00
2017-10-19T03:52:48.250Z,24.60
2017-10-19T03:55:15.561Z,27.87
2017-10-19T03:57:41.812Z,25.10
2017-10-19T04:00:08.084Z,36.67
2017-10-19T04:02:34.415Z,27.63
2017-10-19T04:05:05.509Z,29.50
2017-10-19T04:07:31.606Z,26.67
2017-10-19T04:09:57.870Z,24.80
2017-10-19T04:12:24.714Z,26.33
2017-10-19T04:14:51.569Z,31.73
2017-10-19T04:17:17.729Z,28.30
2017-10-19T04:19:43.857Z,26.27
2017-10-19T04:22:09.959Z,25.40
2017-10-19T04:24:37.809Z,24.83
2017-10-19T04:27:04.745Z,25.30
2017-10-19T04:29:30.997Z,21.90
2017-10-19T04:31:57.419Z,31.33
2017-10-19T04:34:25.149Z,27.47
2017-10-19T04:36:51.406Z,35.60
2017-10-19T04:39:17.730Z,34.53
2017-10-19T04:41:44.023Z,32.67
2017-10-19T04:44:10.252Z,26.77
2017-10-19T04:46:38.050Z,39.53
2017-10-19T04:49:04.319Z,26.97
2017-10-19T04:51:30.592Z,32.73
2017-10-19T04:53:56.867Z,26.93
2017-10-19T04:56:23.146Z,35.67
2017-10-19T04:58:49.405Z,28.40
2017-10-19T05:01:15.651Z,25.53
2017-10-19T05:03:42.644Z,22.27
2017-10-19T05:06:08.902Z,28.20
2017-10-19T05:08:35.356Z,21.40
2017-10-19T05:11:01.589Z,30.70
2017-10-19T05:13:27.841Z,29.60
2017-10-19T05:15:54.142Z,26.93
2017-10-19T05:18:22.016Z,33.27
2017-10-19T05:20:49.073Z,25.10
2017-10-19T05:23:15.359Z,33.63
2017-10-19T05:25:49.413Z,23.07
2017-10-19T05:28:15.665Z,30.70
2017-10-19T05:30:41.977Z,30.13
2017-10-19T05:33:08.226Z,23.00
2017-10-19T05:35:34.486Z,34.23
2017-10-19T05:38:00.727Z,29.53
2017-10-19T05:40:27.681Z,24.80
2017-10-19T05:42:53.951Z,29.30
2017-10-19T05:45:20.205Z,30.27
2017-10-19T05:47:46.460Z,37.73
2017-10-19T05:50:13.524Z,37.07
2017-10-19T05:52:39.786Z,25.53
2017-10-19T05:55:06.068Z,23.27
2017-10-19T05:57:32.367Z,34.67
2017-10-19T05:59:58.608Z,30.93
2017-10-19T06:02:24.847Z,21.73
2017-10-19T06:04:51.157Z,29.90
2017-10-19T06:07:17.431Z,32.90
2017-10-19T06:09:43.662Z,35.67
2017-10-19T06:12:09.910Z,31.20
2017-10-19T06:14:36.176Z,24.07
2017-10-19T06:17:03.216Z,32.03
2017-10-19T06:19:30.270Z,39.33
2017-10-19T06:21:56.569Z,32.63
2017-10-19T06:24:22.862Z,35.50
2017-10-19T06:26:49.178Z,31.67
2017-10-19T06:29:15.442Z,32.20
2017-10-19T06:31:42.698Z,44.97
2017-10-19T06:34:09.736Z,26.90
2017-10-19T06:36:35.986Z,40.20
2017-10-19T06:39:03.019Z,37.40
2017-10-19T06:41:29.290Z,36.97
2017-10-19T06:43:55.525Z,38.13
2017-10-19T06:46:21.801Z,41.13
2017-10-19T06:48:48.058Z,41.93
2017-10-19T06:51:14.295Z,51.10
2017-10-19T06:53:40.586Z,56.27
2017-10-19T06:56:06.814Z,45.30
2017-10-19T06:58:33.085Z,80.30
2017-10-19T07:00:59.314Z,63.03
2017-10-19T07:03:25.600Z,83.07
2017-10-19T07:05:52.598Z,84.33
2017-10-19T07:08:18.881Z,76.27
2017-10-19T07:10:45.909Z,79.27
2017-10-19T07:13:12.174Z,94.23
2017-10-19T07:15:39.476Z,88.23
2017-10-19T07:18:05.979Z,73.00
2017-10-19T07:20:32.982Z,97.03
2017-10-19T07:22:59.232Z,90.87
2017-10-19T07:25:25.531Z,88.73
2017-10-19T07:27:51.768Z,95.83
2017-10-19T07:30:19.470Z,69.80
2017-10-19T07:32:45.837Z,79.40
2017-10-19T07:35:12.815Z,75.73
2017-10-19T07:37:39.389Z,68.60
2017-10-19T07:40:05.649Z,79.90
2017-10-19T07:42:33.382Z,66.93
2017-10-19T07:44:59.622Z,50.43
2017-10-19T07:47:25.878Z,51.67
2017-10-19T07:49:52.840Z,55.73
2017-10-19T07:52:19.830Z,55.13
2017-10-19T07:54:46.134Z,50.10
2017-10-19T07:57:12.373Z,36.70
2017-10-19T07:59:39.350Z,43.47
2017-10-19T08:02:05.600Z,57.03
2017-10-19T08:04:31.835Z,55.80
2017-10-19T08:06:58.083Z,58.73
2017-10-19T08:09:24.489Z,46.43
2017-10-19T08:11:51.509Z,52.90
2017-10-19T08:14:18.488Z,43.87
2017-10-19T08:16:44.736Z,51.87
2017-10-19T08:19:11.042Z,49.20
2017-10-19T08:21:37.300Z,41.63
2017-10-19T08:24:03.554Z,58.37
2017-10-19T08:26:29.781Z,43.73
2017-10-19T08:28:56.067Z,50.03
2017-10-19T08:31:23.093Z,46.30
2017-10-19T08:33:49.410Z,49.27
2017-10-19T08:36:15.643Z,39.90
2017-10-19T08:38:41.877Z,51.33
2017-10-19T08:41:08.136Z,56.63
2017-10-19T08:43:34.363Z,44.60
2017-10-19T08:46:00.593Z,52.07
2017-10-19T08:48:26.836Z,55.53
2017-10-19T08:50:53.046Z,58.30
2017-10-19T08:53:19.277Z,61.73
2017-10-19T08:55:45.507Z,43.27
2017-10-19T08:58:11.736Z,56.90
2017-10-19T09:00:38.006Z,51.67
2017-10-19T09:03:04.406Z,45.57
2017-10-19T09:05:30.695Z,55.67
2017-10-19T09:07:57.040Z,48.60
2017-10-19T09:10:23.278Z,47.83
2017-10-19T09:12:57.104Z,62.90
2017-10-19T09:15:24.105Z,48.10
2017-10-19T09:17:50.363Z,58.47
2017-10-19T09:20:17.451Z,56.80
2017-10-19T09:22:44.425Z,57.97
2017-10-19T09:25:10.692Z,46.67
2017-10-19T09:27:36.932Z,50.33
2017-10-19T09:30:03.169Z,57.47
2017-10-19T09:32:29.394Z,53.70
2017-10-19T09:34:55.905Z,65.53
2017-10-19T09:37:22.196Z,67.33
2017-10-19T09:39:48.470Z,63.57
2017-10-19T09:42:14.746Z,60.93
2017-10-19T09:44:41.006Z,62.77
2017-10-19T09:47:07.253Z,62.93
2017-10-19T09:49:33.511Z,64.13
2017-10-19T09:51:59.815Z,62.77
2017-10-19T09:54:26.028Z,65.90
2017-10-19T09:56:52.466Z,75.13
2017-10-19T09:59:18.745Z,73.13
2017-10-19T10:01:44.928Z,62.37
2017-10-19T10:04:11.175Z,71.13
2017-10-19T10:06:37.337Z,56.60
2017-10-19T10:09:04.282Z,75.07
2017-10-19T10:11:30.565Z,77.37
2017-10-19T10:13:56.826Z,83.20
2017-10-19T10:16:23.103Z,62.37
2017-10-19T10:18:50.155Z,68.63
2017-10-19T10:21:17.145Z,78.07
2017-10-19T10:23:43.434Z,79.53
2017-10-19T10:26:10.418Z,76.60
2017-10-19T10:28:36.666Z,79.40
2017-10-19T10:31:02.905Z,77.97
2017-10-19T10:33:29.160Z,76.27
2017-10-19T10:35:55.466Z,79.23
2017-10-19T10:38:21.694Z,87.50
2017-10-19T10:40:47.947Z,76.87
2017-10-19T10:43:14.242Z,64.43
2017-10-19T10:45:40.520Z,78.27
2017-10-19T10:48:06.827Z,88.60
2017-10-19T10:50:33.098Z,85.87
2017-10-19T10:52:59.390Z,69.43
2017-10-19T10:55:25.670Z,70.27
2017-10-19T10:57:51.923Z,84.70
2017-10-19T11:00:18.217Z,76.33
2017-10-19T11:02:44.462Z,86.23
2017-10-19T11:05:10.730Z,93.50
2017-10-19T11:07:36.933Z,85.20
2017-10-19T11:10:03.185Z,88.20
2017-10-19T11:12:29.437Z,86.07
2017-10-19T11:14:55.714Z,92.70
2017-10-19T11:17:21.984Z,91.43
2017-10-19T11:19:48.211Z,87.47
2017-10-19T11:22:14.462Z,85.73
2017-10-19T11:24:40.746Z,109.80
2017-10-19T11:27:07.011Z,100.13
2017-10-19T11:29:33.232Z,107.80
2017-10-19T11:31:59.491Z,97.10
2017-10-19T11:34:25.715Z,91.60
2017-10-19T11:36:52.034Z,87.03
2017-10-19T11:39:18.302Z,87.17
2017-10-19T11:41:44.556Z,82.20
2017-10-19T11:44:10.798Z,85.60
2017-10-19T11:46:37.761Z,97.60
2017-10-19T11:49:04.755Z,94.53
2017-10-19T11:51:31.005Z,90.83
2017-10-19T11:53:57.277Z,82.40
2017-10-19T11:56:23.529Z,92.77
2017-10-19T11:58:49.762Z,107.40
2017-10-19T12:01:16.774Z,90.30
2017-10-19T12:03:43.311Z,91.23
2017-10-19T12:06:09.553Z,88.20
2017-10-19T12:08:35.839Z,99.47
2017-10-19T12:11:02.085Z,110.77
2017-10-19T12:13:28.318Z,89.10
2017-10-19T12:15:54.582Z,96.27
2017-10-19T12:18:20.814Z,88.40
2017-10-19T12:20:47.065Z,82.27
2017-10-19T12:23:13.315Z,86.40
2017-10-19T12:25:39.647Z,95.83
2017-10-19T12:28:05.882Z,82.60
2017-10-19T12:30:32.883Z,80.47
2017-10-19T12:32:59.134Z,97.23
2017-10-19T12:35:25.385Z,91.60
2017-10-19T12:37:51.809Z,69.87
2017-10-19T12:40:18.057Z,71.67
2017-10-19T12:42:44.297Z,83.27
2017-10-19T12:45:10.561Z,75.77
2017-10-19T12:47:38.595Z,87.83
2017-10-19T12:50:04.937Z,79.27
2017-10-19T12:52:31.192Z,78.50
2017-10-19T12:54:57.426Z,81.70
2017-10-19T12:57:23.658Z,92.70
2017-10-19T12:59:49.921Z,85.13
2017-10-19T13:02:16.915Z,75.47
2017-10-19T13:04:43.170Z,89.67
2017-10-19T13:07:09.433Z,83.10
2017-10-19T13:09:35.673Z,95.33
2017-10-19T13:12:09.610Z,74.93
2017-10-19T13:14:35.847Z,94.13
2017-10-19T13:17:02.090Z,102.40
2017-10-19T13:19:28.358Z,102.07
2017-10-19T13:21:54.621Z,96.80
2017-10-19T13:24:21.711Z,96.60
2017-10-19T13:26:47.942Z,100.17
2017-10-19T13:29:14.238Z,113.70
2017-10-19T13:31:41.230Z,89.60
2017-10-19T13:34:07.474Z,107.73
2017-10-19T13:36:33.701Z,104.10
2017-10-19T13:39:00.230Z,99.60
2017-10-19T13:41:28.413Z,104.40
2017-10-19T13:43:54.694Z,97.57
2017-10-19T13:46:20.937Z,102.10
2017-10-19T13:48:47.228Z,97.20
2017-10-19T13:51:13.478Z,109.87
2017-10-19T13:53:39.745Z,112.20
2017-10-19T13:56:07.498Z,109.80
2017-10-19T13:58:33.864Z,98.57
2017-10-19T14:01:00.858Z,105.43
2017-10-19T14:03:27.195Z,103.90
2017-10-19T14:05:53.439Z,115.67
2017-10-19T14:08:19.722Z,109.17
2017-10-19T14:10:47.086Z,111.93
2017-10-19T14:13:14.229Z,121.50
2017-10-19T14:15:41.233Z,96.33
2017-10-19T14:18:07.546Z,114.03
2017-10-19T14:20:34.505Z,112.63
2017-10-19T14:23:00.767Z,89.07
2017-10-19T14:25:27.078Z,109.90
2017-10-19T14:27:53.350Z,95.90
2017-10-19T14:30:19.592Z,105.63
2017-10-19T14:32:45.946Z,111.00
2017-10-19T14:35:12.186Z,123.27
2017-10-19T14:37:38.461Z,92.83
2017-10-19T14:40:04.782Z,90.73
2017-10-19T14:42:31.765Z,109.23
2017-10-19T14:44:58.225Z,101.13
2017-10-19T14:47:24.694Z,105.43
2017-10-19T14:49:50.948Z,94.73
2017-10-19T14:52:17.942Z,87.67
2017-10-19T14:54:44.185Z,111.23
2017-10-19T14:57:10.425Z,105.77
2017-10-19T14:59:36.668Z,117.03
2017-10-19T15:02:02.946Z,108.83
2017-10-19T15:04:29.934Z,112.77
2017-10-19T15:06:56.334Z,102.07
2017-10-19T15:09:22.658Z,82.70
2017-10-19T15:11:49.671Z,95.33
2017-10-19T15:14:15.905Z,87.10
2017-10-19T15:16:42.162Z,94.90
2017-10-19T15:19:08.405Z,86.50
2017-10-19T15:21:34.653Z,86.27
2017-10-19T15:24:01.655Z,95.23
2017-10-19T15:26:27.904Z,97.70
2017-10-19T15:28:56.273Z,104.57
2017-10-19T15:31:22.510Z,90.77
2017-10-19T15:33:48.751Z,90.37
2017-10-19T15:36:14.995Z,98.10
2017-10-19T15:38:41.294Z,98.77
2017-10-19T15:41:07.711Z,101.67
2017-10-19T15:43:33.968Z,94.00
2017-10-19T15:46:00.257Z,101.90
2017-10-19T15:48:26.667Z,104.07
2017-10-19T15:51:05.367Z,105.70
2017-10-19T15:53:31.632Z,108.40
2017-10-19T15:55:57.873Z,108.97
2017-10-19T15:58:24.309Z,113.47
2017-10-19T16:00:50.561Z,101.40
2017-10-19T16:03:17.546Z,94.87
2017-10-19T16:05:43.826Z,90.37
2017-10-19T16:08:10.058Z,101.13
2017-10-19T16:10:36.336Z,103.87
2017-10-19T16:13:03.341Z,96.43
2017-10-19T16:15:29.593Z,97.97
2017-10-19T16:17:55.902Z,107.00
2017-10-19T16:20:22.235Z,107.10
2017-10-19T16:22:48.502Z,118.67
2017-10-19T16:25:14.737Z,137.40
2017-10-19T16:27:41.049Z,110.63
2017-10-19T16:30:07.281Z,108.17
2017-10-19T16:32:33.736Z,106.77
2017-10-19T16:35:00.774Z,110.83
2017-10-19T16:37:27.025Z,105.27
2017-10-19T16:39:54.146Z,112.73
2017-10-19T16:42:20.566Z,107.07
2017-10-19T16:44:48.361Z,103.70
2017-10-19T16:47:14.753Z,114.80
2017-10-19T16:49:41.870Z,115.60
2017-10-19T16:52:08.187Z,107.87
2017-10-19T16:54:34.585Z,112.07
2017-10-19T16:57:01.605Z,106.73
2017-10-19T16:59:27.875Z,99.37
2017-10-19T17:01:54.898Z,102.73
2017-10-19T17:04:22.859Z,103.13
2017-10-19T17:06:49.117Z,104.80
2017-10-19T17:09:15.439Z,101.37
2017-10-19T17:11:41.685Z,101.37
2017-10-19T17:14:09.386Z,102.43
2017-10-19T17:16:36.383Z,96.07
2017-10-19T17:19:02.704Z,105.03
2017-10-19T17:21:29.041Z,104.93
2017-10-19T17:23:55.361Z,107.77
2017-10-19T17:26:21.703Z,108.60
2017-10-19T17:28:47.987Z,108.30
2017-10-19T17:31:14.246Z,113.20
2017-10-19T17:33:41.266Z,105.90
2017-10-19T17:36:07.504Z,109.33
2017-10-19T17:38:35.285Z,105.77
2017-10-19T17:41:02.350Z,111.37
2017-10-19T17:43:28.833Z,110.80
2017-10-19T17:45:55.172Z,104.13
2017-10-19T17:48:23.981Z,111.33
2017-10-19T17:50:50.280Z,102.17
2017-10-19T17:53:17.278Z,127.00
2017-10-19T17:55:43.653Z,109.63
2017-10-19T17:58:09.933Z,115.07
2017-10-19T18:00:36.288Z,107.30
2017-10-19T18:03:02.727Z,117.70
2017-10-19T18:05:29.798Z,111.87
2017-10-19T18:07:56.884Z,115.20
2017-10-19T18:10:23.311Z,117.37
2017-10-19T18:12:49.657Z,118.60
2017-10-19T18:15:16.735Z,114.63
2017-10-19T18:17:43.126Z,111.20
2017-10-19T18:20:09.359Z,107.37
2017-10-19T18:22:35.616Z,107.63
2017-10-19T18:25:01.930Z,114.23
2017-10-19T18:27:28.233Z,119.43
2017-10-19T18:29:54.508Z,117.30
2017-10-19T18:32:21.567Z,122.37
2017-10-19T18:34:48.626Z,126.97
2017-10-19T18:37:15.831Z,124.00
2017-10-19T18:39:42.374Z,135.73
2017-10-19T18:42:08.661Z,127.13
2017-10-19T18:44:35.182Z,127.27
2017-10-19T18:47:01.463Z,122.70
2017-10-19T18:49:27.726Z,141.63
2017-10-19T18:51:53.985Z,132.13
2017-10-19T18:54:20.269Z,120.87
2017-10-19T18:56:46.501Z,135.77
2017-10-19T18:59:12.820Z,130.43
2017-10-19T19:01:39.855Z,133.23
2017-10-19T19:04:06.301Z,128.97
2017-10-19T19:06:32.657Z,123.87
2017-10-19T19:09:00.514Z,128.73
2017-10-19T19:11:27.535Z,139.37
2017-10-19T19:13:53.782Z,136.03
2017-10-19T19:16:21.532Z,134.67
2017-10-19T19:18:47.874Z,124.07
2017-10-19T19:21:14.158Z,135.83
2017-10-19T19:23:47.458Z,142.50
2017-10-19T19:26:14.712Z,141.93
2017-10-19T19:28:41.131Z,138.17
2017-10-19T19:31:09.179Z,143.20
2017-10-19T19:33:35.555Z,126.63
2017-10-19T19:36:02.622Z,132.93
2017-10-19T19:38:30.526Z,150.73
2017-10-19T19:40:56.777Z,139.13
2017-10-19T19:43:23.038Z,141.20
2017-10-19T19:45:51.074Z,141.87
2017-10-19T19:48:17.354Z,127.03
2017-10-19T19:50:45.216Z,142.00
2017-10-19T19:53:13.049Z,151.77
2017-10-19T19:55:39.344Z,138.80
2017-10-19T19:58:05.794Z,137.73
2017-10-19T20:00:32.103Z,139.43
2017-10-19T20:02:58.379Z,139.77
2017-10-19T20:05:24.723Z,140.10
2017-10-19T20:07:50.986Z,139.57
2017-10-19T20:10:17.243Z,153.70
2017-10-19T20:12:43.745Z,141.27
2017-10-19T20:15:10.871Z,152.53
2017-10-19T20:17:37.173Z,149.57
2017-10-19T20:20:03.450Z,152.37
2017-10-19T20:22:29.735Z,158.33
2017-10-19T20:24:56.726Z,160.60
2017-10-19T20:27:22.957Z,156.17
2017-10-19T20:29:49.979Z,165.53
2017-10-19T20:32:16.245Z,164.07
2017-10-19T20:34:42.510Z,163.27
2017-10-19T20:37:08.917Z,158.60
2017-10-19T20:39:36.036Z,160.37
2017-10-19T20:42:03.191Z,161.30
2017-10-19T20:44:30.926Z,162.17
2017-10-19T20:46:57.306Z,175.10
2017-10-19T20:49:23.558Z,164.80
2017-10-19T20:51:49.795Z,161.10
2017-10-19T20:54:16.069Z,185.87
2017-10-19T20:56:42.346Z,170.70
2017-10-19T20:59:09.478Z,170.90
2017-10-19T21:01:35.722Z,168.37
2017-10-19T21:04:01.957Z,157.70
2017-10-19T21:06:29.107Z,155.47
2017-10-19T21:08:55.554Z,156.90
2017-10-19T21:11:21.857Z,155.10
2017-10-19T21:13:48.128Z,170.23
2017-10-19T21:16:14.388Z,174.00
2017-10-19T21:18:41.390Z,166.53
2017-10-19T21:21:07.726Z,159.93
2017-10-19T21:23:34.924Z,152.23
2017-10-19T21:26:01.243Z,185.57
2017-10-19T21:28:27.494Z,283.83
2017-10-19T21:30:53.742Z,316.07
2017-10-19T21:33:19.976Z,263.47
2017-10-19T21:35:46.243Z,260.00
2017-10-19T21:38:12.531Z,254.93
2017-10-19T21:40:39.586Z,174.27
2017-10-19T21:43:05.872Z,161.63
2017-10-19T21:45:32.911Z,199.03
2017-10-19T21:47:59.252Z,202.40
2017-10-19T21:50:26.371Z,158.93
2017-10-19T21:52:52.652Z,164.90
2017-10-19T21:55:18.901Z,189.97
2017-10-19T21:57:45.158Z,181.00
2017-10-19T22:00:11.409Z,178.03
2017-10-19T22:02:37.671Z,164.93
2017-10-19T22:05:03.946Z,188.90
2017-10-19T22:07:30.206Z,172.13
2017-10-19T22:09:56.439Z,159.57
2017-10-19T22:12:22.690Z,166.80
2017-10-19T22:14:49.697Z,181.20
2017-10-19T22:17:15.946Z,171.77
2017-10-19T22:19:42.249Z,141.13
2017-10-19T22:22:08.534Z,172.87
2017-10-19T22:24:34.775Z,175.20
2017-10-19T22:27:01.014Z,188.67
2017-10-19T22:29:27.238Z,145.63
2017-10-19T22:31:53.494Z,159.83
2017-10-19T22:34:19.759Z,153.40
2017-10-19T22:36:46.058Z,151.40
2017-10-19T22:39:13.050Z,144.93
2017-10-19T22:41:39.302Z,145.70
2017-10-19T22:44:05.544Z,156.93
2017-10-19T22:46:32.897Z,157.33
2017-10-19T22:48:59.523Z,153.30
2017-10-19T22:51:25.826Z,162.13
2017-10-19T22:53:52.794Z,145.50
2017-10-19T22:56:19.794Z,143.80
2017-10-19T22:58:46.026Z,162.27
2017-10-19T23:01:12.250Z,146.00
2017-10-19T23:03:38.513Z,138.27
2017-10-19T23:06:04.758Z,146.93
2017-10-19T23:08:31.737Z,156.60
2017-10-19T23:10:59.547Z,162.30
2017-10-19T23:13:25.797Z,153.43
2017-10-19T23:15:52.089Z,156.07
2017-10-19T23:18:19.043Z,149.87
2017-10-19T23:20:45.262Z,144.63
2017-10-19T23:23:11.570Z,137.97
2017-10-19T23:25:37.814Z,133.00
2017-10-19T23:28:04.033Z,137.57
2017-10-19T23:30:30.277Z,154.23
2017-10-19T23:32:56.553Z,136.97
2017-10-19T23:35:22.826Z,135.23
2017-10-19T23:37:49.057Z,147.03
2017-10-19T23:40:15.278Z,133.97
2017-10-19T23:42:41.518Z,160.30
2017-10-19T23:45:07.730Z,134.20
2017-10-19T23:47:33.988Z,145.67
2017-10-19T23:50:00.321Z,141.33
2017-10-19T23:52:26.561Z,155.73
2017-10-19T23:54:52.798Z,125.63
2017-10-19T23:57:19.028Z,147.80
2017-10-19T23:59:45.265Z,127.50
